55CA weather

Naval Hospital Heliport
Oakland, California, United States

Public forecast

Using degrees Fahrenheit for public forecast. Weather courtesy of forecast.io.

METAR (pilot weather report)

Closest report is Metropolitan Oakland International Airport, 4.3 nm (8.0 km) SW. Retrieved 2019/06/19 08:53 UTC (26 minutes ago):

KOAK 190853Z 02005KT 10SM FEW006 OVC010 16/13 A2993 RMK AO2 SLP132 T01560128 58004

TAF (pilot weather forecast)

Closest forecast is Metropolitan Oakland International Airport, 4.3 nm (8.0 km) SW. Retrieved 2019/06/19 06:27 UTC (3 hours ago):

TAF KOAK 190524Z 1906/2012 32008KT P6SM OVC005 FM191500 29007KT P6SM BKN007 FM191700 29007KT P6SM FEW010 FM192000 31014KT P6SM SKC FM200400 30010KT P6SM BKN010